Time;durP1;ratioP1;P1;durP2;ratioP2;P2;SDS_P1;SDS_P2;PMS_P1;PMS_P2;Temp;Humidity;BMP_temperature;BMP_pressure;BME280_temperature;BME280_humidity;BME280_pressure;Samples;Min_cycle;Max_cycle;Signal;HPM_P1;HPM_P2
2023/03/18 00:01:44;;;;;;;;;2.00;2.00;;;;;22.49;41.09;100654.94;5056992;28;45420;-72
2023/03/18 00:04:10;;;;;;;;;3.00;1.33;;;;;22.48;40.99;100647.97;5039330;28;45377;-72
2023/03/18 00:06:37;;;;;;;;;1.67;1.67;;;;;22.49;41.06;100632.91;5057309;28;45338;-72
2023/03/18 00:09:03;;;;;;;;;2.00;2.00;;;;;22.49;40.91;100638.19;5057181;28;46348;-72
2023/03/18 00:11:30;;;;;;;;;1.67;1.67;;;;;22.47;41.01;100634.94;5057078;28;45483;-72
2023/03/18 00:13:56;;;;;;;;;1.67;1.00;;;;;22.37;41.40;100614.88;5056807;28;45373;-72
2023/03/18 00:16:22;;;;;;;;;1.67;1.67;;;;;22.42;40.97;100614.28;5057155;28;45297;-72
2023/03/18 00:18:47;;;;;;;;;3.00;2.00;;;;;22.47;41.09;100619.03;5057054;28;45332;-72
2023/03/18 00:21:13;;;;;;;;;2.00;2.00;;;;;22.45;41.08;100618.41;5057038;28;45395;-72
2023/03/18 00:23:38;;;;;;;;;2.00;2.00;;;;;22.51;41.49;100625.56;5056996;28;45304;-72
2023/03/18 00:26:05;;;;;;;;;1.67;1.67;;;;;22.51;40.84;100628.22;5056998;28;45335;-72
2023/03/18 00:28:31;;;;;;;;;2.00;2.00;;;;;22.50;40.92;100643.34;5056559;28;47460;-72
2023/03/18 00:31:02;;;;;;;;;2.00;2.00;;;;;22.51;40.86;100636.19;5056826;28;45282;-72
2023/03/18 00:33:29;;;;;;;;;2.00;2.00;;;;;22.46;40.97;100626.16;5056969;28;45421;-72
2023/03/18 00:35:54;;;;;;;;;1.67;1.00;;;;;22.50;40.81;100630.09;5056529;28;45427;-72
2023/03/18 00:38:19;;;;;;;;;4.00;1.00;;;;;22.52;40.98;100640.47;5056631;28;46097;-72
2023/03/18 00:40:52;;;;;;;;;2.00;2.00;;;;;22.40;40.72;100630.38;5056714;28;45368;-72
2023/03/18 00:43:28;;;;;;;;;1.33;1.33;;;;;22.50;41.27;100639.84;5056469;28;45435;-72
2023/03/18 00:45:54;;;;;;;;;3.00;2.00;;;;;22.45;41.31;100626.34;5056663;28;45348;-72
2023/03/18 00:48:20;;;;;;;;;3.00;1.33;;;;;22.46;41.26;100631.44;5056449;28;46200;-72
2023/03/18 00:50:45;;;;;;;;;2.00;2.00;;;;;22.45;41.30;100623.69;5056544;28;45346;-72
2023/03/18 00:53:11;;;;;;;;;1.67;1.67;;;;;22.45;40.99;100621.03;5056747;28;45680;-72
2023/03/18 00:55:38;;;;;;;;;2.00;2.00;;;;;22.44;41.19;100628.16;5056655;28;45751;-71
2023/03/18 00:58:03;;;;;;;;;2.00;2.00;;;;;22.43;40.85;100623.88;5055955;28;46400;-72
2023/03/18 01:00:29;;;;;;;;;1.67;1.67;;;;;22.43;41.39;100612.47;5056366;28;45226;-72
2023/03/18 01:02:55;;;;;;;;;2.00;2.00;;;;;22.42;41.12;100608.16;5056552;28;45524;-72
2023/03/18 01:05:21;;;;;;;;;1.33;1.33;;;;;22.40;41.30;100606.50;5056295;28;45290;-72
2023/03/18 01:07:48;;;;;;;;;1.00;1.00;;;;;22.41;41.15;100620.59;5056262;28;46218;-72
2023/03/18 01:10:14;;;;;;;;;3.00;2.00;;;;;22.41;40.76;100623.25;5055262;28;45252;-72
2023/03/18 01:12:41;;;;;;;;;3.00;1.33;;;;;22.40;41.25;100634.88;5055955;28;45320;-71
2023/03/18 01:15:09;;;;;;;;;4.00;2.00;;;;;22.39;41.36;100620.78;5056264;28;45300;-71
2023/03/18 01:17:35;;;;;;;;;2.00;2.00;;;;;22.39;40.94;100631.38;5056140;28;46059;-72
2023/03/18 01:20:01;;;;;;;;;1.00;1.00;;;;;22.39;41.35;100639.34;5056005;28;45536;-72
2023/03/18 01:22:26;;;;;;;;;2.00;2.00;;;;;22.39;40.88;100652.59;5056207;28;45379;-72
2023/03/18 01:24:52;;;;;;;;;2.00;2.00;;;;;22.39;41.17;100647.28;5056045;28;45445;-72
2023/03/18 01:27:17;;;;;;;;;1.33;1.33;;;;;22.37;40.96;100637.88;5055673;28;46225;-72
2023/03/18 01:29:42;;;;;;;;;1.00;1.00;;;;;22.38;41.32;100643.00;5056140;28;45336;-71
2023/03/18 01:32:08;;;;;;;;;1.67;1.67;;;;;22.39;40.63;100641.16;5056028;28;45337;-72
2023/03/18 01:34:34;;;;;;;;;2.67;2.00;;;;;22.39;40.84;100643.81;5055909;28;45427;-72
2023/03/18 01:37:00;;;;;;;;;3.00;3.00;;;;;22.38;41.41;100635.03;5055708;28;46879;-72
2023/03/18 01:39:25;;;;;;;;;4.00;3.00;;;;;22.38;41.21;100629.75;5055870;28;45528;-72
2023/03/18 01:41:51;;;;;;;;;1.50;1.50;;;;;22.39;40.93;100626.09;5055542;28;45338;-72
2023/03/18 01:44:19;;;;;;;;;2.00;2.00;;;;;22.38;40.52;100619.13;5037910;28;45229;-71
2023/03/18 01:46:47;;;;;;;;;1.00;1.00;;;;;22.41;40.65;100612.63;5055534;28;46168;-72
2023/03/18 01:49:23;;;;;;;;;1.00;1.00;;;;;22.42;40.62;100606.34;5055724;28;45360;-72
2023/03/18 01:51:58;;;;;;;;;0.00;0.00;;;;;22.42;40.67;100598.38;5055691;28;45442;-72
2023/03/18 01:54:25;;;;;;;;;1.50;1.50;;;;;22.43;40.61;100599.22;5055810;28;45380;-72
2023/03/18 01:56:52;;;;;;;;;2.00;2.00;;;;;22.43;40.42;100600.00;5055062;28;46194;-72
2023/03/18 01:59:21;;;;;;;;;2.00;2.00;;;;;22.44;40.94;100598.19;5055399;28;45395;-72
2023/03/18 02:01:52;;;;;;;;;1.00;1.00;;;;;22.44;40.48;100608.78;5055619;28;45396;-72
2023/03/18 02:04:18;;;;;;;;;2.00;2.00;;;;;22.43;40.85;100617.78;5055604;28;45414;-72
2023/03/18 02:06:43;;;;;;;;;3.00;3.00;;;;;22.41;40.74;100615.28;5055340;28;46894;-72
2023/03/18 02:09:10;;;;;;;;;1.00;1.00;;;;;22.40;40.71;100622.41;5055390;28;45402;-72
2023/03/18 02:11:39;;;;;;;;;2.00;2.00;;;;;22.39;40.99;100618.13;5055199;28;45368;-72
2023/03/18 02:14:08;;;;;;;;;1.33;1.33;;;;;22.36;40.65;100618.50;5055442;28;45413;-72
2023/03/18 02:16:44;;;;;;;;;1.00;1.00;;;;;22.38;40.52;100618.31;5055433;28;47050;-72
2023/03/18 02:19:30;;;;;;;;;2.00;2.00;;;;;22.31;40.76;100607.66;5055334;28;45456;-72
2023/03/18 02:22:21;;;;;;;;;1.00;1.00;;;;;22.26;40.87;100596.78;5057874;28;45316;-72
2023/03/18 02:24:58;;;;;;;;;3.00;1.00;;;;;22.34;40.60;100606.44;5058371;28;45191;-71
2023/03/18 02:27:31;;;;;;;;;2.00;2.00;;;;;22.33;40.94;100615.44;5058638;28;46298;-71
2023/03/18 02:30:02;;;;;;;;;1.00;1.00;;;;;22.33;40.56;100612.78;5058398;28;45400;-72
2023/03/18 02:32:30;;;;;;;;;3.67;1.00;;;;;22.33;40.64;100613.56;5058652;28;45403;-72
2023/03/18 02:35:00;;;;;;;;;1.33;1.33;;;;;22.31;40.60;100610.28;5040670;28;45343;-71
2023/03/18 02:37:25;;;;;;;;;2.00;2.00;;;;;22.29;41.03;100605.19;5058432;28;47006;-72
2023/03/18 02:39:50;;;;;;;;;2.00;2.00;;;;;22.32;40.66;100616.44;5058191;28;45412;-72
2023/03/18 02:42:28;;;;;;;;;2.33;2.33;;;;;22.32;40.68;100613.78;5058788;28;45366;-72
2023/03/18 02:44:53;;;;;;;;;2.00;1.67;;;;;22.31;41.12;100612.94;5058647;28;45543;-71
2023/03/18 02:47:21;;;;;;;;;2.00;2.00;;;;;22.31;41.10;100607.66;5058143;28;45524;-72
2023/03/18 02:49:47;;;;;;;;;1.67;1.33;;;;;22.31;40.67;100618.25;5058630;28;45459;-72
2023/03/18 02:52:12;;;;;;;;;2.75;2.75;;;;;22.32;40.96;100619.06;5058592;28;45399;-72
2023/03/18 02:54:38;;;;;;;;;3.25;2.00;;;;;22.31;40.35;100618.25;5058127;28;45341;-72
2023/03/18 02:57:03;;;;;;;;;4.00;2.00;;;;;22.31;40.51;100610.28;5058233;28;46082;-72
2023/03/18 02:59:31;;;;;;;;;1.00;1.00;;;;;22.31;40.99;100612.94;5058382;28;45579;-72
2023/03/18 03:01:56;;;;;;;;;1.25;1.25;;;;;22.31;40.59;100612.94;5058464;28;45411;-71
2023/03/18 03:04:24;;;;;;;;;3.33;2.00;;;;;22.23;40.98;100589.22;5058161;28;45567;-72
2023/03/18 03:06:51;;;;;;;;;2.75;2.75;;;;;22.23;40.71;100594.50;5058099;28;47227;-72
2023/03/18 03:09:16;;;;;;;;;1.25;1.25;;;;;22.33;40.60;100599.53;5057667;28;45419;-72
2023/03/18 03:11:44;;;;;;;;;2.67;2.33;;;;;22.29;40.58;100588.47;5058046;28;45276;-72
2023/03/18 03:14:11;;;;;;;;;2.33;2.00;;;;;22.34;40.32;100577.28;5058246;28;45527;-72
2023/03/18 03:16:37;;;;;;;;;2.00;2.00;;;;;22.34;40.96;100586.06;5057862;28;45582;-72
2023/03/18 03:19:03;;;;;;;;;1.00;1.00;;;;;22.34;40.35;100594.03;5057975;28;45433;-72
2023/03/18 03:21:29;;;;;;;;;1.67;1.67;;;;;22.35;40.83;100592.19;5058078;28;45296;-72
2023/03/18 03:23:55;;;;;;;;;2.00;1.00;;;;;22.34;40.18;100583.44;5056795;28;45562;-72
2023/03/18 03:26:20;;;;;;;;;3.00;3.00;;;;;22.33;40.86;100587.06;5057657;28;46969;-72
2023/03/18 03:28:46;;;;;;;;;3.00;2.00;;;;;22.34;40.40;100591.38;5057902;28;45396;-72
2023/03/18 03:31:13;;;;;;;;;2.33;1.00;;;;;22.34;40.49;100590.53;5057799;28;45286;-71
2023/03/18 03:33:40;;;;;;;;;1.33;1.33;;;;;22.31;40.71;100583.78;5057189;28;45502;-72
2023/03/18 03:36:09;;;;;;;;;1.33;1.33;;;;;22.26;40.90;100579.06;5057402;28;46476;-72
2023/03/18 03:38:34;;;;;;;;;2.33;2.33;;;;;22.25;40.52;100582.72;5057308;28;45371;-72
2023/03/18 03:41:01;;;;;;;;;2.00;2.00;;;;;22.28;40.71;100598.25;5057815;28;45308;-72
2023/03/18 03:43:26;;;;;;;;;2.50;2.00;;;;;22.27;40.66;100593.16;5057770;28;45468;-72
2023/03/18 03:45:52;;;;;;;;;2.00;2.00;;;;;22.25;40.42;100589.88;5057453;28;46235;-72
2023/03/18 03:48:17;;;;;;;;;2.00;2.00;;;;;22.27;40.92;100587.84;5057543;28;45214;-72
2023/03/18 03:50:42;;;;;;;;;2.00;2.00;;;;;22.27;40.46;100585.19;5057742;28;45399;-72
2023/03/18 03:53:09;;;;;;;;;2.67;2.67;;;;;22.27;40.98;100577.25;5057476;28;45603;-71
2023/03/18 03:55:35;;;;;;;;;2.00;2.00;;;;;22.26;40.40;100576.41;5057458;28;46341;-71
2023/03/18 03:58:01;;;;;;;;;1.33;1.00;;;;;22.27;40.87;100590.50;5057427;28;45419;-72
2023/03/18 04:00:26;;;;;;;;;2.00;2.00;;;;;22.23;41.03;100582.09;5057404;28;45433;-72
2023/03/18 04:02:53;;;;;;;;;1.75;1.75;;;;;22.26;40.52;100578.25;5057264;28;45454;-72
2023/03/18 04:05:21;;;;;;;;;1.67;1.67;;;;;22.26;40.46;100586.19;5057093;28;47147;-72
2023/03/18 04:07:47;;;;;;;;;2.00;2.00;;;;;22.25;40.81;100580.06;5056939;28;45293;-72
2023/03/18 04:10:15;;;;;;;;;4.00;3.00;;;;;22.25;40.54;100569.47;5057363;28;45269;-71
2023/03/18 04:12:41;;;;;;;;;1.75;1.75;;;;;22.25;40.35;100572.13;5057176;28;45285;-72
2023/03/18 04:15:08;;;;;;;;;2.00;2.00;;;;;22.22;40.26;100564.56;5057050;28;46075;-72
2023/03/18 04:17:34;;;;;;;;;2.25;2.25;;;;;22.25;40.38;100566.81;5057176;28;45354;-72
2023/03/18 04:20:00;;;;;;;;;2.00;2.00;;;;;22.26;40.91;100560.50;5057182;28;45365;-72
2023/03/18 04:22:26;;;;;;;;;3.00;3.00;;;;;22.18;40.46;100547.38;5056816;28;45475;-72
2023/03/18 04:24:52;;;;;;;;;1.33;1.33;;;;;22.17;40.58;100538.59;5056584;28;46934;-71
2023/03/18 04:27:17;;;;;;;;;3.33;3.33;;;;;22.25;40.37;100558.06;5056751;28;45278;-71
2023/03/18 04:29:43;;;;;;;;;3.00;2.75;;;;;22.26;40.31;100557.03;5057201;28;45468;-72
2023/03/18 04:32:09;;;;;;;;;2.67;2.00;;;;;22.26;40.72;100546.44;5056865;28;45459;-72
2023/03/18 04:34:35;;;;;;;;;1.00;1.00;;;;;22.26;40.54;100549.09;5056610;28;45305;-72
2023/03/18 04:37:01;;;;;;;;;3.00;2.00;;;;;22.28;40.90;100544.41;5056163;28;45417;-72
2023/03/18 04:39:27;;;;;;;;;1.67;1.67;;;;;22.27;40.37;100545.44;5056955;28;45440;-72
2023/03/18 04:41:53;;;;;;;;;2.00;1.67;;;;;22.22;40.66;100538.06;5056744;28;45348;-72
2023/03/18 04:44:19;;;;;;;;;1.75;1.75;;;;;22.27;40.71;100548.91;5054464;28;45463;-71
2023/03/18 04:46:45;;;;;;;;;1.33;1.33;;;;;22.28;40.62;100545.25;5056396;28;45437;-72
2023/03/18 04:49:10;;;;;;;;;2.75;2.75;;;;;22.28;40.51;100547.88;5056726;28;45388;-72
2023/03/18 04:51:36;;;;;;;;;1.67;1.67;;;;;22.28;40.23;100547.88;5056270;28;45287;-71
2023/03/18 04:54:02;;;;;;;;;1.67;1.67;;;;;22.20;40.52;100536.59;5056418;28;46917;-72
2023/03/18 04:56:27;;;;;;;;;1.00;1.00;;;;;22.26;40.39;100552.56;5056587;28;45261;-71
2023/03/18 04:58:53;;;;;;;;;1.00;1.00;;;;;22.27;40.17;100553.38;5056714;28;45328;-72
2023/03/18 05:01:19;;;;;;;;;2.33;2.00;;;;;22.24;40.66;100559.88;5056491;28;45348;-72
2023/03/18 05:03:44;;;;;;;;;3.00;3.00;;;;;22.23;40.35;100552.09;5056448;28;46084;-71
2023/03/18 05:06:25;;;;;;;;;2.00;2.00;;;;;22.22;40.86;100547.84;5055995;28;45395;-72
2023/03/18 05:08:51;;;;;;;;;1.67;1.00;;;;;22.23;40.41;100558.22;5056406;28;45453;-71
2023/03/18 05:11:18;;;;;;;;;4.00;1.33;;;;;22.12;40.65;100535.69;5056296;28;45372;-72
2023/03/18 05:13:43;;;;;;;;;2.75;1.25;;;;;22.23;40.20;100552.94;5038036;28;45973;-71
2023/03/18 05:16:09;;;;;;;;;4.33;2.33;;;;;22.22;40.18;100551.31;5056101;28;45388;-72
2023/03/18 05:18:36;;;;;;;;;2.33;2.33;;;;;22.23;40.36;100549.47;5055985;28;45259;-71
2023/03/18 05:21:01;;;;;;;;;1.00;1.00;;;;;22.22;40.59;100548.66;5056202;28;45352;-72
2023/03/18 05:23:28;;;;;;;;;3.00;1.00;;;;;22.22;40.27;100546.00;5055863;28;46067;-72
2023/03/18 05:25:53;;;;;;;;;1.25;1.25;;;;;22.21;40.80;100533.75;5055211;28;45441;-72
2023/03/18 05:28:20;;;;;;;;;0.33;0.33;;;;;22.21;40.18;100533.75;5056125;28;45388;-72
2023/03/18 05:30:46;;;;;;;;;2.00;2.00;;;;;22.21;40.34;100533.75;5055952;28;45380;-71
2023/03/18 05:33:12;;;;;;;;;4.00;3.00;;;;;22.21;40.80;100531.09;5054577;28;45322;-72
2023/03/18 05:35:38;;;;;;;;;3.00;2.00;;;;;22.20;40.73;100532.09;5055684;28;45278;-72
2023/03/18 05:38:03;;;;;;;;;2.00;2.00;;;;;22.20;40.58;100536.59;5056003;28;45336;-72
2023/03/18 05:40:29;;;;;;;;;3.00;2.00;;;;;22.17;40.79;100530.66;5055812;28;45457;-71
2023/03/18 05:42:54;;;;;;;;;1.33;0.33;;;;;22.17;40.24;100529.84;5055673;28;47012;-72
2023/03/18 05:45:19;;;;;;;;;1.00;1.00;;;;;22.15;40.79;100530.03;5055775;28;45392;-72
2023/03/18 05:47:45;;;;;;;;;2.33;2.33;;;;;22.15;40.63;100530.03;5055719;28;45834;-72
2023/03/18 05:50:10;;;;;;;;;1.00;1.00;;;;;22.16;40.82;100525.56;5056044;28;45996;-71
2023/03/18 05:52:37;;;;;;;;;1.00;1.00;;;;;22.17;40.68;100527.22;5055571;28;45426;-72
2023/03/18 05:55:03;;;;;;;;;1.00;1.00;;;;;22.18;40.79;100529.66;5054498;28;45380;-72
2023/03/18 05:57:28;;;;;;;;;1.67;1.67;;;;;22.20;40.69;100528.66;5054853;28;45400;-72
2023/03/18 05:59:53;;;;;;;;;3.00;2.00;;;;;22.20;40.11;100521.50;5055624;28;45327;-72
2023/03/18 06:02:19;;;;;;;;;4.00;2.33;;;;;22.23;40.03;100528.25;5055120;28;46145;-71
2023/03/18 06:04:44;;;;;;;;;1.33;1.33;;;;;22.23;40.52;100530.91;5055440;28;45472;-72
2023/03/18 06:07:11;;;;;;;;;1.33;1.33;;;;;22.22;40.26;100521.34;5055541;28;45616;-72
2023/03/18 06:09:36;;;;;;;;;2.00;2.00;;;;;22.24;40.03;100536.03;5055651;28;45348;-71
2023/03/18 06:12:02;;;;;;;;;2.25;2.00;;;;;22.15;39.85;100508.00;5055202;28;45425;-72
2023/03/18 06:14:28;;;;;;;;;1.00;1.00;;;;;22.26;40.38;100527.88;5055610;28;45410;-72
2023/03/18 06:16:58;;;;;;;;;1.00;1.00;;;;;22.26;40.03;100538.50;5055266;28;45399;-72
2023/03/18 06:19:24;;;;;;;;;3.33;2.33;;;;;22.13;40.53;100516.16;5055276;28;45303;-72
2023/03/18 06:21:51;;;;;;;;;1.33;1.33;;;;;22.23;40.03;100539.69;5055349;28;46372;-72
2023/03/18 06:24:17;;;;;;;;;2.00;2.00;;;;;22.23;40.57;100536.22;5055145;28;45198;-71
2023/03/18 06:26:42;;;;;;;;;2.50;1.00;;;;;22.16;40.27;100531.69;5055184;28;45358;-72
2023/03/18 06:29:09;;;;;;;;;2.00;2.00;;;;;22.11;40.39;100530.59;5055531;28;45410;-72
2023/03/18 06:31:36;;;;;;;;;2.00;2.00;;;;;22.20;40.60;100547.22;5054618;28;46441;-71
2023/03/18 06:34:02;;;;;;;;;2.00;2.00;;;;;22.17;40.57;100537.81;5055091;28;45420;-72
2023/03/18 06:36:28;;;;;;;;;3.75;2.00;;;;;22.17;40.13;100546.56;5054985;28;45345;-71
2023/03/18 06:38:54;;;;;;;;;2.67;2.00;;;;;22.17;40.41;100546.56;5055215;28;45301;-72
2023/03/18 06:41:20;;;;;;;;;1.00;1.00;;;;;22.07;40.48;100536.28;5054924;28;46360;-71
2023/03/18 06:43:49;;;;;;;;;1.00;1.00;;;;;22.16;40.46;100547.56;5054976;28;45476;-71
2023/03/18 06:46:14;;;;;;;;;2.00;2.00;;;;;22.13;40.56;100542.66;5054780;28;45357;-72
2023/03/18 06:48:39;;;;;;;;;3.00;3.00;;;;;22.16;40.15;100542.28;5036880;28;45393;-71
2023/03/18 06:51:06;;;;;;;;;1.67;1.67;;;;;22.16;40.19;100544.09;5054857;28;45981;-72
2023/03/18 06:53:32;;;;;;;;;1.33;1.33;;;;;22.15;40.05;100551.22;5055001;28;45523;-72
2023/03/18 06:55:57;;;;;;;;;1.67;1.67;;;;;22.16;40.63;100560.81;5054968;28;45381;-72
2023/03/18 06:58:23;;;;;;;;;1.00;1.00;;;;;22.17;40.14;100559.00;5055011;28;45405;-72
2023/03/18 07:00:48;;;;;;;;;2.33;1.67;;;;;22.16;40.58;100555.53;5054368;28;46065;-72
2023/03/18 07:03:14;;;;;;;;;1.00;1.00;;;;;22.16;40.53;100560.00;5054807;28;45468;-71
2023/03/18 07:05:41;;;;;;;;;1.67;1.67;;;;;22.06;40.66;100536.47;5054959;28;45381;-72
2023/03/18 07:08:07;;;;;;;;;1.67;1.67;;;;;22.10;39.93;100550.97;5056285;28;45233;-72
2023/03/18 07:10:32;;;;;;;;;2.00;2.00;;;;;22.06;40.22;100555.84;5057905;28;46319;-72
2023/03/18 07:12:59;;;;;;;;;1.00;1.00;;;;;22.08;40.08;100560.94;5058010;28;45274;-72
2023/03/18 07:15:25;;;;;;;;;1.00;1.00;;;;;22.16;40.10;100567.94;5057917;28;45340;-70
2023/03/18 07:17:53;;;;;;;;;2.00;2.00;;;;;22.16;40.01;100571.44;5058051;28;45360;-71
2023/03/18 07:20:21;;;;;;;;;1.67;1.67;;;;;22.18;40.44;100560.63;5057804;28;46089;-72
2023/03/18 07:22:47;;;;;;;;;1.00;1.00;;;;;22.20;40.18;100558.59;5057894;28;45234;-71
2023/03/18 07:25:12;;;;;;;;;2.00;2.00;;;;;22.13;40.06;100544.47;5057767;28;45339;-72
2023/03/18 07:27:39;;;;;;;;;1.67;1.00;;;;;22.09;40.35;100538.75;5057913;28;45358;-71
2023/03/18 07:30:05;;;;;;;;;1.00;1.00;;;;;22.22;40.43;100569.88;5057602;28;45264;-72
2023/03/18 07:32:30;;;;;;;;;1.00;1.00;;;;;22.18;39.85;100548.22;5057147;28;45385;-72
2023/03/18 07:34:56;;;;;;;;;1.00;1.00;;;;;22.23;39.92;100565.34;5057827;28;45441;-72
2023/03/18 07:37:22;;;;;;;;;2.00;2.00;;;;;22.24;39.87;100562.53;5057745;28;45429;-72
2023/03/18 07:39:47;;;;;;;;;1.00;1.00;;;;;22.26;39.92;100565.00;5057670;28;47328;-72
2023/03/18 07:42:12;;;;;;;;;0.00;0.00;;;;;22.26;40.29;100563.16;5057544;28;45364;-71
2023/03/18 07:44:38;;;;;;;;;2.00;2.00;;;;;22.27;39.76;100564.00;5057611;28;45548;-72
2023/03/18 07:47:03;;;;;;;;;2.00;1.00;;;;;22.17;40.24;100564.31;5057595;28;45292;-72
2023/03/18 07:49:30;;;;;;;;;1.00;1.00;;;;;22.26;39.78;100572.94;5057510;28;46100;-72
2023/03/18 07:51:56;;;;;;;;;1.00;1.00;;;;;22.24;39.77;100573.13;5057728;28;45307;-72
2023/03/18 07:54:23;;;;;;;;;2.00;2.00;;;;;22.24;39.92;100573.13;5057532;28;45167;-71
2023/03/18 07:56:52;;;;;;;;;1.00;1.00;;;;;22.18;39.92;100565.94;5057514;28;45522;-72
2023/03/18 07:59:18;;;;;;;;;1.00;1.00;;;;;22.24;40.33;100561.72;5056774;28;47234;-71
2023/03/18 08:01:43;;;;;;;;;1.67;1.67;;;;;22.24;40.08;100574.97;5057200;28;45345;-71
2023/03/18 08:04:10;;;;;;;;;1.00;1.00;;;;;22.24;39.78;100578.44;5057579;28;45436;-71
2023/03/18 08:06:36;;;;;;;;;2.00;2.00;;;;;22.26;40.21;100575.59;5057329;28;45418;-72
2023/03/18 08:09:03;;;;;;;;;3.00;1.00;;;;;22.25;39.80;100572.13;5056510;28;46453;-72
2023/03/18 08:11:29;;;;;;;;;1.00;1.00;;;;;22.25;40.32;100574.75;5056999;28;45442;-72
2023/03/18 08:13:54;;;;;;;;;2.00;2.00;;;;;22.26;40.21;100573.75;5056817;28;45313;-71
2023/03/18 08:16:20;;;;;;;;;3.00;1.00;;;;;22.27;39.86;100577.25;5057342;28;45354;-72
2023/03/18 08:18:45;;;;;;;;;2.00;2.00;;;;;22.22;39.71;100575.16;5056692;28;46049;-71
2023/03/18 08:21:10;;;;;;;;;2.00;1.67;;;;;22.26;40.24;100575.59;5056163;28;45390;-72
2023/03/18 08:23:36;;;;;;;;;2.00;2.00;;;;;22.24;40.38;100588.22;5057002;28;45419;-70
2023/03/18 08:26:02;;;;;;;;;1.00;1.00;;;;;22.27;40.28;100593.16;5056957;28;45392;-72
2023/03/18 08:28:27;;;;;;;;;1.50;1.50;;;;;22.25;40.33;100590.66;5056398;28;47167;-74
2023/03/18 08:30:58;;;;;;;;;2.00;2.00;;;;;22.24;40.00;100596.16;5056653;28;45338;-72
2023/03/18 08:33:24;;;;;;;;;1.00;1.00;;;;;22.17;40.06;100580.19;5056583;28;45386;-74
2023/03/18 08:35:50;;;;;;;;;1.00;1.00;;;;;22.27;39.85;100601.09;5056423;28;45455;-71
2023/03/18 08:38:17;;;;;;;;;1.00;1.00;;;;;22.28;39.62;100602.72;5050923;28;46040;-76
2023/03/18 08:40:42;;;;;;;;;1.33;1.00;;;;;22.23;39.63;100592.69;5056034;28;45613;-75
2023/03/18 08:43:08;;;;;;;;;1.00;1.00;;;;;22.27;39.94;100607.22;5055521;28;45363;-73
2023/03/18 08:45:35;;;;;;;;;2.00;2.00;;;;;22.28;39.69;100606.19;5056735;28;45491;-75
2023/03/18 08:48:01;;;;;;;;;1.00;1.00;;;;;22.29;39.57;100614.97;5056644;28;45449;-75
2023/03/18 08:50:28;;;;;;;;;1.33;1.33;;;;;22.25;39.73;100603.91;5056181;28;45579;-75
2023/03/18 08:52:57;;;;;;;;;0.67;0.67;;;;;22.31;39.57;100617.41;5056362;28;45372;-74
2023/03/18 08:55:31;;;;;;;;;0.67;0.67;;;;;22.34;40.06;100612.59;5055254;28;45272;-75
2023/03/18 08:57:57;;;;;;;;;1.00;1.00;;;;;22.36;39.80;100615.03;5055992;28;46162;-72
2023/03/18 09:00:24;;;;;;;;;2.00;1.00;;;;;22.36;39.87;100617.69;5055449;28;45404;-76
2023/03/18 09:02:51;;;;;;;;;1.00;1.00;;;;;22.37;39.80;100617.50;5055709;28;45483;-75
2023/03/18 09:05:17;;;;;;;;;1.00;1.00;;;;;22.33;39.81;100600.31;5056153;28;45429;-73
2023/03/18 09:07:42;;;;;;;;;0.00;0.00;;;;;22.28;39.74;100592.13;5056095;28;46892;-72
2023/03/18 09:10:11;;;;;;;;;5.00;1.00;;;;;22.35;40.36;100605.47;5049454;28;45418;-73
2023/03/18 09:12:37;;;;;;;;;1.00;1.00;;;;;22.39;39.79;100609.34;5039787;28;45429;-72
2023/03/18 09:15:04;;;;;;;;;2.00;1.00;;;;;22.40;40.32;100611.81;5018147;28;45417;-72
2023/03/18 09:17:30;;;;;;;;;2.00;0.67;;;;;22.39;40.00;100604.88;5036023;28;47210;-72
2023/03/18 09:19:56;;;;;;;;;1.00;1.00;;;;;22.39;40.38;100614.66;5034948;28;45413;-72
2023/03/18 09:22:21;;;;;;;;;0.00;0.00;;;;;22.41;39.84;100617.94;5036152;28;45234;-72
2023/03/18 09:24:46;;;;;;;;;0.00;0.00;;;;;22.43;40.01;100607.16;5049912;28;45528;-72
2023/03/18 09:27:13;;;;;;;;;1.00;1.00;;;;;22.43;39.89;100617.78;5055664;28;45213;-72
2023/03/18 09:29:38;;;;;;;;;1.00;1.00;;;;;22.42;40.33;100610.81;5055987;28;45376;-72
2023/03/18 09:32:04;;;;;;;;;1.00;1.00;;;;;22.43;40.27;100623.88;5055104;28;45374;-71
2023/03/18 09:34:30;;;;;;;;;1.33;0.00;;;;;22.44;40.31;100622.03;5031253;28;45427;-72
2023/03/18 09:36:56;;;;;;;;;1.00;1.00;;;;;22.43;40.19;100615.91;5055254;28;46280;-72
2023/03/18 09:39:22;;;;;;;;;1.00;0.00;;;;;22.42;40.25;100609.00;5055027;28;45388;-72
2023/03/18 09:42:22;;;;;;;;;1.00;1.00;;;;;22.43;40.35;100615.13;5055755;28;45356;-72
2023/03/18 09:45:01;;;;;;;;;1.00;1.00;;;;;22.42;40.37;100616.94;5051329;28;45582;-74
2023/03/18 09:47:52;;;;;;;;;1.00;1.00;;;;;22.43;40.01;100615.91;5055393;28;46236;-75
2023/03/18 09:50:34;;;;;;;;;0.33;0.33;;;;;22.43;40.11;100615.13;5055748;28;45407;-74
2023/03/18 09:53:15;;;;;;;;;0.00;0.00;;;;;22.33;39.65;100605.63;5056042;28;45399;-75
2023/03/18 09:55:45;;;;;;;;;0.67;0.00;;;;;22.42;39.81;100616.94;5055387;28;45461;-74
2023/03/18 09:58:26;;;;;;;;;0.00;0.00;;;;;22.44;39.95;100619.38;5055576;28;47265;-72
2023/03/18 10:00:58;;;;;;;;;3.00;1.00;;;;;22.45;39.85;100621.03;5055499;28;45301;-73
2023/03/18 10:03:34;;;;;;;;;2.00;1.00;;;;;22.45;40.19;100623.69;5055248;28;45427;-73
2023/03/18 10:06:16;;;;;;;;;0.33;0.33;;;;;22.45;40.29;100623.69;5055605;28;45435;-73
2023/03/18 10:09:03;;;;;;;;;0.00;0.00;;;;;22.46;40.33;100622.66;5054910;28;45743;-73
2023/03/18 10:11:33;;;;;;;;;0.00;0.00;;;;;22.43;39.90;100618.56;5055401;28;45432;-77
2023/03/18 10:14:25;;;;;;;;;0.33;0.00;;;;;22.45;39.59;100619.22;5055505;28;45361;-72
2023/03/18 10:17:01;;;;;;;;;0.00;0.00;;;;;22.43;40.01;100625.72;5055746;28;45420;-75
2023/03/18 10:19:27;;;;;;;;;1.00;1.00;;;;;22.38;40.04;100615.66;5055351;28;46523;-75
2023/03/18 10:22:05;;;;;;;;;1.00;1.00;;;;;22.41;40.35;100623.25;5055245;28;45503;-73
2023/03/18 10:24:49;;;;;;;;;1.00;1.00;;;;;22.35;39.94;100613.41;5036901;28;45439;-73
2023/03/18 10:27:28;;;;;;;;;1.67;1.67;;;;;22.43;40.30;100631.81;5055231;28;45473;-75
2023/03/18 10:30:32;;;;;;;;;0.00;0.00;;;;;22.32;40.63;100598.69;5055314;28;45388;-73
2023/03/18 10:33:23;;;;;;;;;1.67;1.00;;;;;22.36;39.93;100620.34;5034982;28;45424;-73
2023/03/18 10:36:07;;;;;;;;;1.00;1.00;;;;;22.43;40.43;100629.16;5035097;28;45345;-74
2023/03/18 10:38:39;;;;;;;;;1.00;1.00;;;;;22.44;40.34;100622.03;5034915;28;45443;-74
2023/03/18 10:41:30;;;;;;;;;0.33;0.33;;;;;22.45;40.38;100626.34;5034976;28;45360;-75
2023/03/18 10:43:57;;;;;;;;;0.00;0.00;;;;;22.45;40.21;100618.41;5038481;28;45390;-75
2023/03/18 10:46:24;;;;;;;;;1.00;1.00;;;;;22.38;39.70;100607.72;5038506;28;45413;-74
2023/03/18 10:49:06;;;;;;;;;1.00;1.00;;;;;22.44;39.70;100620.22;5038588;28;45512;-75
2023/03/18 10:51:48;;;;;;;;;1.00;1.00;;;;;22.44;40.23;100611.44;5038178;28;46263;-75
2023/03/18 10:54:24;;;;;;;;;0.00;0.00;;;;;22.42;40.20;100624.91;5038065;28;45383;-76
2023/03/18 10:56:51;;;;;;;;;0.33;0.33;;;;;22.41;40.21;100623.25;5038341;28;45313;-75
2023/03/18 10:59:23;;;;;;;;;0.00;0.00;;;;;22.43;40.15;100617.78;5038398;28;45426;-75
2023/03/18 11:02:05;;;;;;;;;1.00;1.00;;;;;22.43;40.05;100623.88;5038202;28;45375;-75
2023/03/18 11:04:41;;;;;;;;;0.67;0.67;;;;;22.44;39.42;100630.00;5038341;28;45299;-75
2023/03/18 11:07:16;;;;;;;;;0.00;0.00;;;;;22.42;39.51;100627.53;5037921;28;45432;-73
2023/03/18 11:09:41;;;;;;;;;0.00;0.00;;;;;22.42;39.70;100632.84;5038039;28;45378;-71
2023/03/18 11:12:27;;;;;;;;;0.00;0.00;;;;;22.33;40.18;100604.81;5037523;28;46276;-77
2023/03/18 11:14:53;;;;;;;;;0.00;0.00;;;;;22.40;40.10;100622.41;5038165;28;45376;-74
2023/03/18 11:17:22;;;;;;;;;0.00;0.00;;;;;22.40;39.75;100616.31;5037503;28;45345;-73
2023/03/18 11:19:59;;;;;;;;;1.00;1.00;;;;;22.30;40.05;100600.72;5038122;28;45381;-76
2023/03/18 11:22:26;;;;;;;;;0.67;0.67;;;;;22.40;39.61;100630.38;5037289;28;46653;-75
2023/03/18 11:25:04;;;;;;;;;0.33;0.33;;;;;22.42;39.83;100621.41;5052440;28;45405;-73
2023/03/18 11:27:37;;;;;;;;;0.00;0.00;;;;;22.41;39.70;100617.94;5057728;28;45415;-72
2023/03/18 11:30:12;;;;;;;;;0.00;0.00;;;;;22.32;39.46;100605.81;5057922;28;45452;-73